createdAt,value
2017-08-11T00:00:26.741Z,990.49
2017-08-11T00:01:26.745Z,990.50
2017-08-11T00:02:27.182Z,990.42
2017-08-11T00:03:27.209Z,990.37
2017-08-11T00:04:27.370Z,990.49
2017-08-11T00:05:27.603Z,990.39
2017-08-11T00:06:27.530Z,990.39
2017-08-11T00:07:27.564Z,990.32
2017-08-11T00:08:27.515Z,990.34
2017-08-11T00:09:27.749Z,990.31
2017-08-11T00:10:27.576Z,990.30
2017-08-11T00:11:27.150Z,990.21
2017-08-11T00:12:27.192Z,990.26
2017-08-11T00:13:27.219Z,990.21
2017-08-11T00:14:27.875Z,990.29
2017-08-11T00:15:26.803Z,990.34
2017-08-11T00:16:27.341Z,990.24
2017-08-11T00:17:26.740Z,990.30
2017-08-11T00:18:27.223Z,990.26
2017-08-11T00:19:28.260Z,990.33
2017-08-11T00:20:26.702Z,990.37
2017-08-11T00:21:27.556Z,990.30
2017-08-11T00:22:27.611Z,990.35
2017-08-11T00:23:27.700Z,990.43
2017-08-11T00:24:27.826Z,990.29
2017-08-11T00:25:27.585Z,990.31
2017-08-11T00:26:27.164Z,990.28
2017-08-11T00:27:27.269Z,990.24
2017-08-11T00:28:27.214Z,990.15
2017-08-11T00:29:27.863Z,990.15
2017-08-11T00:30:26.783Z,990.09
2017-08-11T00:31:26.816Z,989.97
2017-08-11T00:32:26.856Z,990.08
2017-08-11T00:33:26.804Z,990.05
2017-08-11T00:34:27.462Z,990.12
2017-08-11T00:35:27.195Z,990.18
2017-08-11T00:36:27.236Z,990.20
2017-08-11T00:37:27.585Z,990.18
2017-08-11T00:38:27.513Z,990.12
2017-08-11T00:39:27.548Z,990.16
2017-08-11T00:40:27.677Z,990.25
2017-08-11T00:41:27.605Z,990.17
2017-08-11T00:42:27.638Z,990.27
2017-08-11T00:43:27.761Z,990.32
2017-08-11T00:44:27.885Z,990.29
2017-08-11T00:45:27.216Z,990.29
2017-08-11T00:46:27.282Z,990.29
2017-08-11T00:47:26.882Z,990.31
2017-08-11T00:48:26.812Z,990.29
2017-08-11T00:49:27.447Z,990.33
2017-08-11T00:50:26.770Z,990.32
2017-08-11T00:51:27.307Z,990.36
2017-08-11T00:52:27.227Z,990.32
2017-08-11T00:53:27.315Z,990.29
2017-08-11T00:54:27.535Z,990.26
2017-08-11T00:55:27.851Z,990.29
2017-08-11T00:56:27.682Z,990.25
2017-08-11T00:57:27.716Z,990.28
2017-08-11T00:58:27.650Z,990.21
2017-08-11T00:59:27.990Z,990.24
2017-08-11T01:02:28.966Z,990.15
2017-08-11T01:02:29.573Z,990.08
2017-08-11T01:02:30.181Z,990.04
2017-08-11T01:05:52.128Z,990.00
2017-08-11T01:05:52.735Z,989.94
2017-08-11T01:05:53.344Z,989.93
2017-08-11T01:08:29.152Z,989.87
2017-08-11T01:08:29.758Z,989.72
2017-08-11T01:08:30.364Z,989.62
2017-08-11T01:11:57.439Z,989.68
2017-08-11T01:11:58.145Z,989.57
2017-08-11T01:11:58.749Z,989.58
2017-08-11T01:14:31.502Z,989.65
2017-08-11T01:14:32.112Z,989.66
2017-08-11T01:14:32.720Z,989.81
2017-08-11T01:17:58.156Z,989.61
2017-08-11T01:17:58.866Z,989.63
2017-08-11T01:17:59.472Z,989.58
2017-08-11T01:20:31.108Z,989.52
2017-08-11T01:20:31.715Z,989.54
2017-08-11T01:20:32.325Z,989.45
2017-08-11T01:23:59.370Z,989.44
2017-08-11T01:23:59.983Z,989.40
2017-08-11T01:24:00.584Z,989.44
2017-08-11T01:27:07.721Z,989.49
2017-08-11T01:27:08.334Z,989.52
2017-08-11T01:27:08.958Z,989.53
2017-08-11T01:29:58.996Z,989.58
2017-08-11T01:29:59.606Z,989.64
2017-08-11T01:30:00.214Z,989.62
2017-08-11T01:32:33.826Z,989.68
2017-08-11T01:32:34.424Z,989.71
2017-08-11T01:32:35.035Z,989.73
2017-08-11T01:35:59.076Z,989.72
2017-08-11T01:35:59.787Z,989.77
2017-08-11T01:36:00.399Z,989.73
2017-08-11T01:38:30.357Z,989.77
2017-08-11T01:38:30.965Z,989.74
2017-08-11T01:38:31.569Z,989.75
2017-08-11T01:41:59.459Z,989.75
2017-08-11T01:42:00.066Z,989.80
2017-08-11T01:42:00.673Z,989.74
2017-08-11T01:44:31.519Z,989.81
2017-08-11T01:44:32.130Z,989.76
2017-08-11T01:44:32.734Z,989.81
2017-08-11T01:47:48.994Z,989.78
2017-08-11T01:47:49.604Z,989.90
2017-08-11T01:47:50.212Z,989.93
2017-08-11T01:50:30.143Z,989.87
2017-08-11T01:50:30.753Z,989.92
2017-08-11T01:50:31.362Z,989.92
2017-08-11T01:53:55.282Z,989.93
2017-08-11T01:53:55.893Z,989.84
2017-08-11T01:53:56.495Z,989.86
2017-08-11T01:56:31.429Z,989.93
2017-08-11T01:56:32.132Z,990.01
2017-08-11T01:56:32.739Z,989.96
2017-08-11T01:59:59.466Z,990.00
2017-08-11T02:00:00.111Z,989.92
2017-08-11T02:00:00.770Z,989.92
2017-08-11T02:00:27.033Z,989.95
2017-08-11T02:01:27.928Z,989.92
2017-08-11T02:02:27.859Z,989.92
2017-08-11T02:03:27.900Z,989.85
2017-08-11T02:04:27.843Z,989.96
2017-08-11T02:05:28.190Z,989.89
2017-08-11T02:06:27.449Z,989.92
2017-08-11T02:07:27.483Z,989.93
2017-08-11T02:08:27.004Z,989.89
2017-08-11T02:09:27.034Z,989.84
2017-08-11T02:10:27.784Z,989.73
2017-08-11T02:11:27.106Z,989.78
2017-08-11T02:12:27.060Z,989.79
2017-08-11T02:13:27.591Z,989.60
2017-08-11T02:14:27.515Z,989.69
2017-08-11T02:15:27.737Z,989.64
2017-08-11T02:16:27.870Z,989.69
2017-08-11T02:17:27.920Z,989.60
2017-08-11T02:18:27.965Z,989.57
2017-08-11T02:19:27.898Z,989.55
2017-08-11T02:20:28.131Z,989.56
2017-08-11T02:21:27.460Z,989.59
2017-08-11T02:22:27.511Z,989.52
2017-08-11T02:23:27.546Z,989.58
2017-08-11T02:24:27.078Z,989.57
2017-08-11T02:25:28.216Z,989.56
2017-08-11T02:26:27.136Z,989.57
2017-08-11T02:27:27.067Z,989.46
2017-08-11T02:28:27.489Z,989.49
2017-08-11T02:29:27.516Z,989.50
2017-08-11T02:30:27.844Z,989.45
2017-08-11T02:31:27.563Z,989.46
2017-08-11T02:32:27.936Z,989.49
2017-08-11T02:33:27.968Z,989.44
2017-08-11T02:34:27.993Z,989.52
2017-08-11T02:35:27.818Z,989.41
2017-08-11T02:36:27.946Z,989.43
2017-08-11T02:37:27.497Z,989.46
2017-08-11T02:38:28.242Z,989.57
2017-08-11T02:39:27.577Z,989.47
2017-08-11T02:40:28.224Z,989.47
2017-08-11T02:41:27.149Z,989.45
2017-08-11T02:42:27.169Z,989.49
2017-08-11T02:43:27.199Z,982.56
2017-08-11T02:44:27.133Z,989.48
2017-08-11T02:45:27.819Z,989.53
2017-08-11T02:46:27.559Z,989.53
2017-08-11T02:47:27.587Z,989.50
2017-08-11T02:48:28.019Z,989.44
2017-08-11T02:49:27.952Z,989.47
2017-08-11T02:50:27.878Z,989.56
2017-08-11T02:51:28.030Z,989.55
2017-08-11T02:52:27.968Z,989.45
2017-08-11T02:53:27.991Z,989.42
2017-08-11T02:54:28.048Z,989.48
2017-08-11T02:55:28.372Z,989.44
2017-08-11T02:56:27.617Z,989.49
2017-08-11T02:57:27.183Z,989.53
2017-08-11T02:58:27.240Z,989.49
2017-08-11T02:59:27.170Z,989.46
2017-08-11T03:00:28.205Z,989.50
2017-08-11T03:01:27.229Z,989.50
2017-08-11T03:02:27.760Z,989.50
2017-08-11T03:03:27.666Z,989.45
2017-08-11T03:04:28.007Z,989.59
2017-08-11T03:05:27.958Z,989.58
2017-08-11T03:06:28.158Z,989.50
2017-08-11T03:07:28.007Z,989.55
2017-08-11T03:08:28.052Z,989.60
2017-08-11T03:09:28.080Z,989.53
2017-08-11T03:10:28.413Z,989.50
2017-08-11T03:11:27.651Z,989.51
2017-08-11T03:12:27.710Z,989.48
2017-08-11T03:13:27.633Z,989.47
2017-08-11T03:14:27.263Z,989.49
2017-08-11T03:14:48.107Z,989.49
2017-08-11T03:17:07.492Z,989.45
2017-08-11T03:17:08.101Z,989.39
2017-08-11T03:17:27.239Z,989.33
2017-08-11T03:18:27.663Z,989.38
2017-08-11T03:19:27.687Z,989.49
2017-08-11T03:20:28.058Z,989.37
2017-08-11T03:21:28.104Z,989.40
2017-08-11T03:22:27.934Z,989.41
2017-08-11T03:23:28.056Z,989.37
2017-08-11T03:24:28.083Z,989.34
2017-08-11T03:25:28.112Z,989.38
2017-08-11T03:26:28.148Z,989.37
2017-08-11T03:27:27.993Z,989.36
2017-08-11T03:28:27.725Z,989.38
2017-08-11T03:29:27.803Z,989.39
2017-08-11T03:30:27.827Z,989.35
2017-08-11T03:31:27.248Z,989.23
2017-08-11T03:32:28.277Z,989.22
2017-08-11T03:33:27.307Z,989.18
2017-08-11T03:34:27.326Z,989.16
2017-08-11T03:35:27.653Z,989.10
2017-08-11T03:36:27.880Z,989.16
2017-08-11T03:37:28.032Z,989.11
2017-08-11T03:38:28.168Z,989.16
2017-08-11T03:39:28.097Z,989.20
2017-08-11T03:40:28.125Z,989.22
2017-08-11T03:41:28.141Z,989.20
2017-08-11T03:42:27.892Z,989.27
2017-08-11T03:43:27.703Z,989.31
2017-08-11T03:44:27.730Z,989.34
2017-08-11T03:45:27.772Z,989.35
2017-08-11T03:46:27.302Z,989.39
2017-08-11T03:47:28.058Z,989.39
2017-08-11T03:48:27.380Z,989.45
2017-08-11T03:49:27.306Z,989.53
2017-08-11T03:50:27.757Z,989.46
2017-08-11T03:51:27.787Z,989.46
2017-08-11T03:52:28.023Z,989.48
2017-08-11T03:53:28.151Z,982.67
2017-08-11T03:54:28.202Z,989.60
2017-08-11T03:55:28.128Z,989.57
2017-08-11T03:56:28.183Z,989.64
2017-08-11T03:57:28.112Z,989.61
2017-08-11T03:58:28.163Z,989.59
2017-08-11T03:59:28.203Z,989.59
2017-08-11T04:00:28.240Z,989.64
2017-08-11T04:01:27.791Z,989.61
2017-08-11T04:02:28.075Z,989.66
2017-08-11T04:03:27.333Z,989.62
2017-08-11T04:04:27.377Z,989.65
2017-08-11T04:05:27.426Z,989.66
2017-08-11T04:06:37.438Z,989.63
2017-08-11T04:07:27.634Z,989.66
2017-08-11T04:08:27.761Z,989.69
2017-08-11T04:09:27.814Z,989.66
2017-08-11T04:10:28.266Z,989.65
2017-08-11T04:11:28.188Z,989.56
2017-08-11T04:12:28.109Z,989.52
2017-08-11T04:13:28.240Z,989.44
2017-08-11T04:14:28.269Z,989.48
2017-08-11T04:15:28.202Z,989.49
2017-08-11T04:16:28.241Z,989.36
2017-08-11T04:17:28.571Z,989.41
2017-08-11T04:18:27.796Z,989.40
2017-08-11T04:19:27.852Z,989.41
2017-08-11T04:20:27.395Z,989.33
2017-08-11T04:21:27.438Z,989.38
2017-08-11T04:22:28.174Z,989.34
2017-08-11T04:23:27.409Z,989.27
2017-08-11T04:24:27.835Z,989.33
2017-08-11T04:25:27.885Z,989.37
2017-08-11T04:26:27.916Z,989.37
2017-08-11T04:27:28.199Z,989.44
2017-08-11T04:28:28.289Z,989.39
2017-08-11T04:29:28.159Z,989.42
2017-08-11T04:30:28.236Z,989.50
2017-08-11T04:31:28.309Z,989.43
2017-08-11T04:32:28.539Z,989.53
2017-08-11T04:33:27.874Z,989.55
2017-08-11T04:34:27.876Z,989.46
2017-08-11T04:35:27.893Z,989.46
2017-08-11T04:36:28.008Z,989.47
2017-08-11T04:37:28.096Z,989.51
2017-08-11T04:38:27.463Z,989.49
2017-08-11T04:39:27.522Z,989.44
2017-08-11T04:40:27.500Z,989.41
2017-08-11T04:41:27.883Z,989.42
2017-08-11T04:42:28.162Z,989.37
2017-08-11T04:43:27.933Z,989.44
2017-08-11T04:44:28.372Z,989.45
2017-08-11T04:45:28.318Z,989.44
2017-08-11T04:46:28.331Z,989.51
2017-08-11T04:47:28.169Z,989.56
2017-08-11T04:48:28.353Z,989.56
2017-08-11T04:49:28.380Z,989.54
2017-08-11T04:50:27.964Z,989.51
2017-08-11T04:51:27.938Z,989.52
2017-08-11T04:52:28.592Z,989.53
2017-08-11T04:53:27.494Z,989.60
2017-08-11T04:54:28.012Z,989.51
2017-08-11T04:55:27.549Z,989.51
2017-08-11T04:56:27.569Z,989.47
2017-08-11T04:57:28.213Z,989.50
2017-08-11T04:58:27.485Z,989.42
2017-08-11T04:59:28.287Z,989.35
2017-08-11T05:00:28.092Z,989.37
2017-08-11T05:01:28.321Z,989.32
2017-08-11T05:02:28.190Z,989.38
2017-08-11T05:03:28.224Z,989.34
2017-08-11T05:04:28.376Z,989.31
2017-08-11T05:05:28.345Z,989.32
2017-08-11T05:06:28.437Z,989.38
2017-08-11T05:07:28.709Z,989.33
2017-08-11T05:08:27.968Z,989.27
2017-08-11T05:09:27.953Z,989.33
2017-08-11T05:10:27.597Z,989.30
2017-08-11T05:11:27.593Z,989.33
2017-08-11T05:12:28.231Z,989.32
2017-08-11T05:13:27.636Z,989.39
2017-08-11T05:14:27.544Z,989.42
2017-08-11T05:15:27.978Z,989.44
2017-08-11T05:16:28.002Z,989.52
2017-08-11T05:17:28.327Z,989.50
2017-08-11T05:18:28.472Z,989.52
2017-08-11T05:19:28.399Z,989.57
2017-08-11T05:20:28.352Z,989.55
2017-08-11T05:21:28.394Z,989.44
2017-08-11T05:22:28.736Z,989.44
2017-08-11T05:23:27.989Z,989.42
2017-08-11T05:24:28.497Z,989.40
2017-08-11T05:25:28.003Z,989.34
2017-08-11T05:26:28.007Z,989.28
2017-08-11T05:27:28.734Z,989.25
2017-08-11T05:28:27.636Z,989.23
2017-08-11T05:29:27.681Z,989.28
2017-08-11T05:30:27.755Z,989.24
2017-08-11T05:31:27.638Z,989.28
2017-08-11T05:32:28.821Z,989.26
2017-08-11T05:33:27.654Z,989.26
2017-08-11T05:34:28.513Z,989.29
2017-08-11T05:35:28.475Z,989.25
2017-08-11T05:36:28.520Z,989.22
2017-08-11T05:37:28.323Z,989.20
2017-08-11T05:38:29.475Z,989.16
2017-08-11T05:39:27.704Z,989.16
2017-08-11T05:40:28.595Z,989.21
2017-08-11T05:41:28.031Z,989.09
2017-08-11T05:42:28.782Z,989.15
2017-08-11T05:43:28.232Z,989.12
2017-08-11T05:44:27.663Z,989.06
2017-08-11T05:45:27.726Z,989.07
2017-08-11T05:46:27.674Z,988.98
2017-08-11T05:47:28.330Z,989.02
2017-08-11T05:48:28.058Z,989.03
2017-08-11T05:49:28.088Z,989.07
2017-08-11T05:50:28.534Z,989.10
2017-08-11T05:51:28.500Z,989.05
2017-08-11T05:52:28.387Z,989.05
2017-08-11T05:53:28.512Z,989.11
2017-08-11T05:54:28.537Z,989.22
2017-08-11T07:01:54.224Z,988.94
2017-08-11T07:02:25.353Z,988.86
2017-08-11T07:03:18.078Z,988.96
2017-08-11T07:04:09.925Z,988.92
2017-08-11T07:04:48.146Z,988.98
2017-08-11T07:06:08.949Z,989.03
2017-08-11T07:07:09.325Z,988.99
2017-08-11T07:07:48.277Z,989.06
2017-08-11T07:08:48.312Z,989.10
2017-08-11T07:10:09.045Z,989.07
2017-08-11T07:11:09.346Z,989.01
2017-08-11T07:11:48.375Z,989.05
2017-08-11T07:12:48.361Z,989.01
2017-08-11T07:14:09.113Z,989.09
2017-08-11T07:15:09.303Z,989.08
2017-08-11T07:15:48.313Z,989.17
2017-08-11T07:16:48.353Z,989.24
2017-08-11T07:18:09.257Z,989.24
2017-08-11T07:19:09.441Z,989.33
2017-08-11T07:19:48.339Z,989.37
2017-08-11T07:20:48.375Z,989.38
2017-08-11T07:22:09.086Z,989.41
2017-08-11T07:23:09.338Z,989.51
2017-08-11T07:23:48.328Z,989.47
2017-08-11T07:25:09.384Z,989.60
2017-08-11T07:26:09.107Z,989.58
2017-08-11T07:26:48.248Z,989.56
2017-08-11T07:27:48.313Z,989.61
2017-08-11T07:29:09.320Z,989.69
2017-08-11T07:30:09.087Z,989.61
2017-08-11T07:30:48.331Z,989.72
2017-08-11T07:31:48.309Z,989.70
2017-08-11T07:33:09.415Z,989.67
2017-08-11T07:34:09.004Z,989.64
2017-08-11T07:34:48.354Z,989.72
2017-08-11T07:35:48.330Z,989.76
2017-08-11T07:37:09.373Z,989.69
2017-08-11T07:38:09.237Z,989.68
2017-08-11T07:38:48.351Z,989.71
2017-08-11T07:39:48.347Z,989.69
2017-08-11T07:41:09.465Z,989.63
2017-08-11T07:42:09.188Z,989.61
2017-08-11T07:42:48.408Z,989.50
2017-08-11T07:43:48.388Z,989.52
2017-08-11T07:45:09.496Z,989.44
2017-08-11T07:46:09.202Z,989.47
2017-08-11T07:46:48.352Z,989.50
2017-08-11T07:47:48.444Z,989.40
2017-08-11T07:49:09.256Z,989.46
2017-08-11T07:49:46.789Z,989.46
2017-08-11T07:50:38.828Z,989.50
2017-08-11T07:51:58.256Z,989.46
2017-08-11T07:53:09.510Z,989.46
2017-08-11T07:54:09.168Z,989.55
2017-08-11T07:54:48.407Z,989.53
2017-08-11T07:55:48.407Z,989.46
2017-08-11T07:57:09.368Z,989.43
2017-08-11T07:58:09.226Z,989.44
2017-08-11T07:58:48.421Z,989.53
2017-08-11T07:59:48.477Z,989.45
2017-08-11T08:01:09.433Z,989.42
2017-08-11T08:01:48.351Z,989.39
2017-08-11T08:02:48.388Z,989.41
2017-08-11T08:04:09.161Z,989.38
2017-08-11T08:05:09.334Z,989.27
2017-08-11T08:05:48.409Z,989.41
2017-08-11T08:06:48.371Z,989.37
2017-08-11T08:08:09.265Z,989.41
2017-08-11T08:09:09.340Z,989.49
2017-08-11T08:09:48.395Z,989.39
2017-08-11T08:11:09.322Z,989.41
2017-08-11T08:12:09.197Z,989.43
2017-08-11T08:12:48.434Z,989.38
2017-08-11T08:13:46.970Z,989.38
2017-08-11T08:14:39.025Z,989.45
2017-08-11T08:15:10.310Z,989.42
2017-08-11T08:16:09.209Z,989.50
2017-08-11T08:17:09.454Z,989.54
2017-08-11T08:17:48.444Z,989.47
2017-08-11T08:18:48.441Z,989.54
2017-08-11T08:20:09.173Z,989.54
2017-08-11T08:21:09.458Z,989.53
2017-08-11T08:21:48.476Z,989.55
2017-08-11T08:22:48.467Z,989.60
2017-08-11T08:24:09.301Z,989.61
2017-08-11T08:25:09.501Z,989.63
2017-08-11T08:25:48.503Z,989.74
2017-08-11T08:26:48.526Z,989.64
2017-08-11T08:28:09.305Z,989.70
2017-08-11T08:29:09.528Z,989.65
2017-08-11T08:29:48.442Z,989.66
2017-08-11T08:31:09.518Z,989.72
2017-08-11T08:32:09.258Z,989.66
2017-08-11T08:32:48.523Z,989.69
2017-08-11T08:33:48.511Z,989.66
2017-08-11T08:35:09.503Z,989.59
2017-08-11T08:35:47.042Z,989.59
2017-08-11T08:36:38.980Z,989.66
2017-08-11T08:37:58.383Z,989.56
2017-08-11T08:39:09.409Z,989.66
2017-08-11T08:40:09.186Z,989.64
2017-08-11T08:40:48.651Z,989.67
2017-08-11T08:41:48.598Z,989.64
2017-08-11T08:43:09.629Z,989.83
2017-08-11T08:44:09.272Z,989.88
2017-08-11T08:44:48.553Z,989.89
2017-08-11T08:45:48.718Z,989.91
2017-08-11T08:47:09.609Z,989.92
2017-08-11T08:48:09.233Z,990.01
2017-08-11T08:48:48.507Z,990.04
2017-08-11T08:49:48.601Z,990.07
2017-08-11T08:51:09.437Z,990.09
2017-08-11T08:52:09.463Z,990.16
2017-08-11T08:52:48.548Z,990.13
2017-08-11T08:53:48.539Z,990.07
2017-08-11T08:55:09.531Z,990.05
2017-08-11T08:56:09.458Z,990.06
2017-08-11T08:56:48.640Z,990.04
2017-08-11T08:57:48.601Z,990.08
2017-08-11T08:59:09.539Z,990.04
2017-08-11T09:00:09.312Z,990.00
2017-08-11T09:00:48.606Z,990.00
2017-08-11T09:01:48.605Z,989.99
2017-08-11T09:03:09.548Z,989.98
2017-08-11T09:04:09.471Z,990.04
2017-08-11T09:04:48.545Z,990.04
2017-08-11T09:06:09.440Z,989.97
2017-08-11T09:07:09.538Z,989.99
2017-08-11T09:07:48.604Z,989.95
2017-08-11T09:08:48.607Z,989.95
2017-08-11T09:10:09.431Z,989.87
2017-08-11T09:11:09.577Z,989.85
2017-08-11T09:11:48.615Z,989.89
2017-08-11T09:12:48.580Z,989.82
2017-08-11T09:14:09.380Z,989.84
2017-08-11T09:15:09.637Z,989.82
2017-08-11T09:15:48.622Z,989.76
2017-08-11T09:16:48.643Z,989.76
2017-08-11T09:18:09.321Z,989.70
2017-08-11T09:18:46.890Z,989.70
2017-08-11T09:19:39.140Z,989.84
2017-08-11T09:20:58.381Z,989.79
2017-08-11T09:22:09.475Z,989.84
2017-08-11T09:23:09.553Z,989.93
2017-08-11T09:23:48.750Z,989.92
2017-08-11T09:24:48.649Z,989.89
2017-08-11T09:26:09.357Z,989.99
2017-08-11T09:27:09.583Z,989.98
2017-08-11T09:27:48.658Z,989.93
2017-08-11T09:28:48.783Z,990.02
2017-08-11T09:30:09.443Z,989.91
2017-08-11T09:30:48.694Z,989.81
2017-08-11T09:31:48.720Z,989.80
2017-08-11T09:33:09.573Z,989.72
2017-08-11T09:34:09.381Z,989.67
2017-08-11T09:34:48.757Z,989.62
2017-08-11T09:35:48.708Z,989.57
2017-08-11T09:37:09.727Z,989.62
2017-08-11T09:38:09.494Z,989.69
2017-08-11T09:38:48.703Z,989.60
2017-08-11T09:39:48.700Z,989.63
2017-08-11T09:41:09.593Z,989.63
2017-08-11T09:42:09.498Z,989.59
2017-08-11T09:42:48.740Z,989.56
2017-08-11T09:43:48.721Z,989.63
2017-08-11T09:45:09.652Z,989.51
2017-08-11T09:46:09.408Z,989.58
2017-08-11T09:46:48.728Z,989.45
2017-08-11T09:47:48.654Z,989.38
2017-08-11T09:49:09.630Z,989.18
2017-08-11T09:50:09.454Z,989.09
2017-08-11T09:50:48.708Z,989.04
2017-08-11T09:51:48.691Z,988.94
2017-08-11T09:53:09.701Z,988.94
2017-08-11T09:54:09.520Z,988.88
2017-08-11T09:54:48.750Z,988.90
2017-08-11T09:55:48.770Z,988.98
2017-08-11T09:57:09.748Z,988.90
2017-08-11T09:58:09.826Z,988.92
2017-08-11T09:58:48.709Z,988.86
2017-08-11T09:59:47.468Z,988.86
2017-08-11T10:00:39.496Z,988.95
2017-08-11T10:01:10.872Z,988.89
2017-08-11T10:02:09.605Z,988.87
2017-08-11T10:03:09.772Z,988.91
2017-08-11T10:03:48.763Z,988.87
2017-08-11T10:04:48.830Z,988.98
2017-08-11T10:06:09.540Z,988.98
2017-08-11T10:07:09.713Z,988.97
2017-08-11T10:07:48.754Z,988.96
2017-08-11T10:08:48.838Z,988.85
2017-08-11T10:10:09.451Z,988.85
2017-08-11T10:11:09.767Z,988.71
2017-08-11T10:11:48.777Z,988.73
2017-08-11T10:13:09.706Z,988.67
2017-08-11T10:14:09.514Z,988.61
2017-08-11T10:14:48.780Z,988.62
2017-08-11T10:15:48.820Z,988.50
2017-08-11T10:17:09.726Z,988.50
2017-08-11T10:18:09.531Z,988.47
2017-08-11T10:18:48.856Z,988.46
2017-08-11T10:19:48.869Z,988.46
2017-08-11T10:21:09.843Z,988.62
2017-08-11T10:22:09.655Z,988.59
2017-08-11T10:22:48.791Z,988.58
2017-08-11T10:23:48.819Z,988.59
2017-08-11T10:25:09.857Z,988.59
2017-08-11T10:26:09.579Z,988.58
2017-08-11T10:26:48.825Z,988.62
2017-08-11T10:27:48.862Z,988.64
2017-08-11T10:29:09.901Z,988.67
2017-08-11T10:30:09.721Z,988.65
2017-08-11T10:30:49.661Z,988.72
2017-08-11T10:31:48.847Z,988.73
2017-08-11T10:33:09.739Z,988.75
2017-08-11T10:34:09.642Z,988.84
2017-08-11T10:34:48.820Z,988.88
2017-08-11T10:35:48.843Z,988.84
2017-08-11T10:37:09.914Z,988.88
2017-08-11T10:38:09.745Z,988.96
2017-08-11T10:38:48.820Z,988.86
2017-08-11T10:39:48.820Z,989.02
2017-08-11T10:41:09.789Z,988.99
2017-08-11T10:42:09.708Z,988.96
2017-08-11T10:42:48.881Z,988.89
2017-08-11T10:43:48.861Z,988.85
2017-08-11T10:45:09.829Z,988.85
2017-08-11T10:46:10.268Z,988.80
2017-08-11T10:46:48.872Z,988.80
2017-08-11T10:47:48.861Z,988.88
2017-08-11T10:49:09.825Z,988.88
2017-08-11T10:50:09.655Z,988.80
2017-08-11T10:50:48.918Z,988.78
2017-08-11T10:51:48.916Z,988.78
2017-08-11T13:54:46.106Z,988.62
2017-08-11T13:55:28.336Z,988.63
2017-08-11T13:56:29.397Z,988.65
2017-08-11T13:57:30.033Z,988.77
2017-08-11T13:58:29.482Z,988.75
2017-08-11T13:59:29.540Z,988.70
2017-08-11T14:00:30.224Z,988.62
2017-08-11T14:01:32.007Z,988.56
2017-08-11T14:02:44.130Z,988.49
2017-08-11T14:03:29.058Z,988.44
2017-08-11T14:04:29.491Z,988.52
2017-08-11T14:05:30.351Z,988.62
2017-08-11T14:06:29.124Z,988.66
2017-08-11T14:07:30.005Z,988.69
2017-08-11T14:08:29.935Z,988.76
2017-08-11T14:09:29.892Z,988.85
2017-08-11T14:10:29.845Z,988.86
2017-08-11T14:11:29.896Z,988.91
2017-08-11T14:12:29.935Z,988.90
2017-08-11T14:13:29.967Z,988.94
2017-08-11T14:14:29.531Z,988.95
2017-08-11T14:15:31.101Z,989.04
2017-08-11T14:16:29.207Z,989.03
2017-08-11T14:17:36.419Z,989.14
2017-08-11T14:18:29.157Z,989.15
2017-08-11T14:19:29.669Z,989.25
2017-08-11T14:20:29.649Z,989.29
2017-08-11T14:21:29.521Z,989.26
2017-08-11T14:22:29.628Z,989.22
2017-08-11T14:23:29.899Z,989.23
2017-08-11T14:24:29.958Z,989.21
2017-08-11T14:25:29.806Z,989.16
2017-08-11T14:26:29.831Z,989.22
2017-08-11T14:27:30.090Z,989.11
2017-08-11T14:28:29.964Z,989.11
2017-08-11T14:29:29.523Z,989.05
2017-08-11T14:30:30.196Z,989.04
2017-08-11T14:31:30.418Z,989.04
2017-08-11T14:32:29.624Z,989.03
2017-08-11T14:33:29.161Z,988.97
2017-08-11T14:34:29.158Z,988.96
2017-08-11T14:35:29.863Z,988.97
2017-08-11T14:36:29.885Z,989.01
2017-08-11T14:37:29.298Z,989.07
2017-08-11T14:38:30.782Z,989.02
2017-08-11T14:39:29.127Z,989.06
2017-08-11T14:40:29.961Z,989.04
2017-08-11T14:41:29.965Z,988.97
2017-08-11T14:42:29.968Z,988.98
2017-08-11T14:43:29.999Z,988.92
2017-08-11T14:44:30.129Z,988.93
2017-08-11T14:45:30.102Z,988.94
2017-08-11T14:46:30.016Z,988.80
2017-08-11T14:47:29.617Z,988.78
2017-08-11T14:48:29.636Z,988.73
2017-08-11T14:49:29.596Z,988.71
2017-08-11T14:50:29.640Z,988.72
2017-08-11T14:51:29.934Z,988.67
2017-08-11T14:52:29.228Z,988.61
2017-08-11T14:53:29.223Z,988.55
2017-08-11T14:54:29.236Z,988.61
2017-08-11T14:55:29.771Z,988.61
2017-08-11T14:56:30.607Z,988.56
2017-08-11T14:57:29.263Z,988.57
2017-08-11T14:58:30.019Z,988.64
2017-08-11T14:59:30.121Z,988.60
2017-08-11T15:00:30.069Z,988.58
2017-08-11T15:01:30.290Z,988.48
2017-08-11T15:02:30.131Z,988.42
2017-08-11T15:03:29.651Z,988.37
2017-08-11T15:04:30.114Z,988.32
2017-08-11T15:05:29.740Z,988.27
2017-08-11T15:06:29.622Z,988.18
2017-08-11T15:07:29.227Z,988.11
2017-08-11T15:08:29.766Z,988.11
2017-08-11T15:09:29.809Z,988.09
2017-08-11T15:10:29.360Z,987.99
2017-08-11T15:11:29.296Z,988.00
2017-08-11T15:12:29.778Z,987.96
2017-08-11T15:13:29.760Z,987.99
2017-08-11T15:14:29.966Z,987.84
2017-08-11T15:15:30.144Z,987.89
2017-08-11T15:16:30.318Z,987.79
2017-08-11T15:17:30.112Z,987.73
2017-08-11T15:18:30.126Z,987.73
2017-08-11T15:19:30.126Z,987.70
2017-08-11T15:20:30.257Z,987.68
2017-08-11T15:21:29.851Z,987.75
2017-08-11T15:22:30.262Z,987.75
2017-08-11T15:23:29.737Z,987.85
2017-08-11T15:24:29.796Z,987.84
2017-08-11T15:25:30.062Z,987.84
2017-08-11T15:26:30.005Z,987.85
2017-08-11T15:27:29.314Z,987.71
2017-08-11T15:28:29.754Z,987.68
2017-08-11T15:29:29.675Z,987.75
2017-08-11T15:30:29.796Z,987.64
2017-08-11T15:31:30.091Z,987.69
2017-08-11T15:32:30.185Z,987.67
2017-08-11T15:33:30.155Z,987.78
2017-08-11T15:34:30.344Z,987.77
2017-08-11T15:35:30.213Z,987.86
2017-08-11T15:36:30.101Z,987.84
2017-08-11T15:37:30.152Z,987.87
2017-08-11T15:38:29.784Z,987.81
2017-08-11T15:39:29.728Z,987.86
2017-08-11T15:40:30.239Z,988.01
2017-08-11T15:41:30.056Z,988.01
2017-08-11T15:42:29.416Z,988.10
2017-08-11T15:43:29.355Z,988.16
2017-08-11T15:44:29.442Z,988.22
2017-08-11T15:45:29.396Z,988.20
2017-08-11T15:46:29.836Z,988.14
2017-08-11T15:47:29.802Z,988.11
2017-08-11T15:48:29.810Z,988.19
2017-08-11T15:49:30.202Z,988.18
2017-08-11T15:50:30.317Z,988.19
2017-08-11T15:51:30.128Z,988.25
2017-08-11T15:52:30.149Z,988.25
2017-08-11T15:53:30.271Z,988.24
2017-08-11T15:54:30.220Z,988.18
2017-08-11T15:55:30.448Z,988.19
2017-08-11T15:56:30.117Z,988.26
2017-08-11T15:57:31.446Z,988.23
2017-08-11T15:58:29.390Z,988.31
2017-08-11T15:59:29.845Z,988.33
2017-08-11T16:00:29.923Z,988.42
2017-08-11T16:01:29.862Z,988.38
2017-08-11T16:02:29.864Z,988.42
2017-08-11T16:03:29.852Z,988.38
2017-08-11T16:04:29.837Z,988.35
2017-08-11T16:05:29.891Z,988.39
2017-08-11T16:06:29.920Z,988.37
2017-08-11T16:07:30.290Z,988.32
2017-08-11T16:08:30.263Z,988.34
2017-08-11T16:09:30.207Z,988.25
2017-08-11T16:10:30.365Z,988.34
2017-08-11T16:11:30.474Z,988.35
2017-08-11T16:12:30.369Z,988.38
2017-08-11T16:13:29.879Z,988.42
2017-08-11T16:14:30.043Z,988.52
2017-08-11T16:15:30.177Z,988.54
2017-08-11T16:16:30.117Z,988.60
2017-08-11T16:17:29.476Z,988.65
2017-08-11T16:18:29.476Z,988.61
2017-08-11T16:19:29.702Z,988.71
2017-08-11T16:20:29.614Z,988.64
2017-08-11T16:21:29.741Z,988.67
2017-08-11T16:22:29.504Z,988.65
2017-08-11T16:23:30.395Z,988.72
2017-08-11T16:24:30.412Z,988.71
2017-08-11T16:25:30.427Z,988.76
2017-08-11T16:26:30.191Z,988.70
2017-08-11T16:27:30.277Z,988.74
2017-08-11T16:28:29.904Z,988.72
2017-08-11T16:29:29.962Z,988.72
2017-08-11T16:30:30.108Z,988.77
2017-08-11T16:31:30.552Z,988.81
2017-08-11T16:32:29.464Z,988.76